sensor_id;sensor_type;location;lat;lon;timestamp;P1;durP1;ratioP1;P2;durP2;ratioP2
18082;SDS011;9168;51.194;6.840;2023-03-31T00:01:18;12.15;;;2.00;;
18082;SDS011;9168;51.194;6.840;2023-03-31T00:03:45;12.30;;;1.90;;
18082;SDS011;9168;51.194;6.840;2023-03-31T00:06:12;11.85;;;2.00;;
18082;SDS011;9168;51.194;6.840;2023-03-31T00:08:42;12.95;;;2.78;;
18082;SDS011;9168;51.194;6.840;2023-03-31T00:11:09;12.55;;;2.58;;
18082;SDS011;9168;51.194;6.840;2023-03-31T00:13:37;10.57;;;1.90;;
18082;SDS011;9168;51.194;6.840;2023-03-31T00:16:06;10.77;;;2.00;;
18082;SDS011;9168;51.194;6.840;2023-03-31T00:18:35;10.93;;;2.35;;
18082;SDS011;9168;51.194;6.840;2023-03-31T00:21:06;9.45;;;1.90;;
18082;SDS011;9168;51.194;6.840;2023-03-31T00:23:38;8.73;;;2.58;;
18082;SDS011;9168;51.194;6.840;2023-03-31T00:26:05;6.35;;;1.83;;
18082;SDS011;9168;51.194;6.840;2023-03-31T00:28:33;11.90;;;2.20;;
18082;SDS011;9168;51.194;6.840;2023-03-31T00:31:00;11.95;;;1.70;;
18082;SDS011;9168;51.194;6.840;2023-03-31T00:33:28;11.68;;;1.98;;
18082;SDS011;9168;51.194;6.840;2023-03-31T00:35:56;9.27;;;1.75;;
18082;SDS011;9168;51.194;6.840;2023-03-31T00:38:26;10.73;;;2.28;;
18082;SDS011;9168;51.194;6.840;2023-03-31T00:40:54;15.15;;;2.40;;
18082;SDS011;9168;51.194;6.840;2023-03-31T00:43:26;11.48;;;1.98;;
18082;SDS011;9168;51.194;6.840;2023-03-31T00:46:06;16.75;;;2.42;;
18082;SDS011;9168;51.194;6.840;2023-03-31T00:48:40;8.90;;;1.75;;
18082;SDS011;9168;51.194;6.840;2023-03-31T00:51:12;15.43;;;2.45;;
18082;SDS011;9168;51.194;6.840;2023-03-31T00:53:40;16.98;;;2.25;;
18082;SDS011;9168;51.194;6.840;2023-03-31T00:56:08;10.82;;;1.95;;
18082;SDS011;9168;51.194;6.840;2023-03-31T00:58:38;10.98;;;2.15;;
18082;SDS011;9168;51.194;6.840;2023-03-31T01:01:09;13.13;;;2.38;;
18082;SDS011;9168;51.194;6.840;2023-03-31T01:03:41;13.63;;;1.90;;
18082;SDS011;9168;51.194;6.840;2023-03-31T01:06:10;17.67;;;2.22;;
18082;SDS011;9168;51.194;6.840;2023-03-31T01:08:39;14.85;;;2.15;;
18082;SDS011;9168;51.194;6.840;2023-03-31T01:11:09;13.68;;;2.55;;
18082;SDS011;9168;51.194;6.840;2023-03-31T01:13:38;23.42;;;2.63;;
18082;SDS011;9168;51.194;6.840;2023-03-31T01:16:07;19.95;;;2.38;;
18082;SDS011;9168;51.194;6.840;2023-03-31T01:18:33;18.70;;;2.53;;
18082;SDS011;9168;51.194;6.840;2023-03-31T01:21:15;13.35;;;2.03;;
18082;SDS011;9168;51.194;6.840;2023-03-31T01:30:11;15.13;;;2.45;;
18082;SDS011;9168;51.194;6.840;2023-03-31T01:35:57;12.73;;;2.20;;
18082;SDS011;9168;51.194;6.840;2023-03-31T01:39:13;13.32;;;1.90;;
18082;SDS011;9168;51.194;6.840;2023-03-31T01:42:06;14.50;;;2.28;;
18082;SDS011;9168;51.194;6.840;2023-03-31T01:44:39;14.60;;;2.00;;
18082;SDS011;9168;51.194;6.840;2023-03-31T01:47:12;10.57;;;1.75;;
18082;SDS011;9168;51.194;6.840;2023-03-31T01:49:48;9.88;;;2.03;;
18082;SDS011;9168;51.194;6.840;2023-03-31T01:52:21;10.98;;;1.90;;
18082;SDS011;9168;51.194;6.840;2023-03-31T01:54:51;16.25;;;2.42;;
18082;SDS011;9168;51.194;6.840;2023-03-31T01:57:26;19.42;;;2.20;;
18082;SDS011;9168;51.194;6.840;2023-03-31T02:00:00;15.30;;;2.50;;
18082;SDS011;9168;51.194;6.840;2023-03-31T02:02:31;8.02;;;1.70;;
18082;SDS011;9168;51.194;6.840;2023-03-31T02:05:05;17.05;;;2.22;;
18082;SDS011;9168;51.194;6.840;2023-03-31T02:07:36;19.42;;;2.60;;
18082;SDS011;9168;51.194;6.840;2023-03-31T02:10:07;15.13;;;2.65;;
18082;SDS011;9168;51.194;6.840;2023-03-31T02:12:38;13.57;;;2.10;;
18082;SDS011;9168;51.194;6.840;2023-03-31T02:15:08;17.33;;;2.58;;
18082;SDS011;9168;51.194;6.840;2023-03-31T02:17:37;19.23;;;2.80;;
18082;SDS011;9168;51.194;6.840;2023-03-31T02:20:10;15.80;;;2.17;;
18082;SDS011;9168;51.194;6.840;2023-03-31T02:22:41;24.60;;;2.63;;
18082;SDS011;9168;51.194;6.840;2023-03-31T02:25:11;18.33;;;2.10;;
18082;SDS011;9168;51.194;6.840;2023-03-31T02:27:44;14.23;;;2.53;;
18082;SDS011;9168;51.194;6.840;2023-03-31T02:30:14;16.85;;;2.83;;
18082;SDS011;9168;51.194;6.840;2023-03-31T02:32:42;18.67;;;2.90;;
18082;SDS011;9168;51.194;6.840;2023-03-31T02:35:11;14.27;;;2.40;;
18082;SDS011;9168;51.194;6.840;2023-03-31T02:37:41;13.88;;;2.35;;
18082;SDS011;9168;51.194;6.840;2023-03-31T02:40:10;18.17;;;2.88;;
18082;SDS011;9168;51.194;6.840;2023-03-31T02:42:41;18.13;;;2.60;;
18082;SDS011;9168;51.194;6.840;2023-03-31T02:48:04;19.27;;;2.70;;
18082;SDS011;9168;51.194;6.840;2023-03-31T02:50:39;18.98;;;3.17;;
18082;SDS011;9168;51.194;6.840;2023-03-31T02:53:24;18.80;;;3.38;;
18082;SDS011;9168;51.194;6.840;2023-03-31T02:55:58;22.17;;;3.83;;
18082;SDS011;9168;51.194;6.840;2023-03-31T02:58:43;20.15;;;2.85;;
18082;SDS011;9168;51.194;6.840;2023-03-31T03:01:40;14.30;;;3.17;;
18082;SDS011;9168;51.194;6.840;2023-03-31T03:04:30;14.55;;;2.88;;
18082;SDS011;9168;51.194;6.840;2023-03-31T03:07:20;23.55;;;3.33;;
18082;SDS011;9168;51.194;6.840;2023-03-31T03:09:56;24.52;;;3.10;;
18082;SDS011;9168;51.194;6.840;2023-03-31T03:12:27;20.10;;;2.78;;
18082;SDS011;9168;51.194;6.840;2023-03-31T03:14:59;17.00;;;2.70;;
18082;SDS011;9168;51.194;6.840;2023-03-31T03:17:33;13.75;;;2.80;;
18082;SDS011;9168;51.194;6.840;2023-03-31T03:20:02;20.35;;;2.70;;
18082;SDS011;9168;51.194;6.840;2023-03-31T03:22:32;18.90;;;3.25;;
18082;SDS011;9168;51.194;6.840;2023-03-31T03:24:59;18.25;;;2.67;;
18082;SDS011;9168;51.194;6.840;2023-03-31T03:27:26;15.38;;;2.40;;
18082;SDS011;9168;51.194;6.840;2023-03-31T03:29:54;24.02;;;2.90;;
18082;SDS011;9168;51.194;6.840;2023-03-31T03:32:21;15.20;;;2.70;;
18082;SDS011;9168;51.194;6.840;2023-03-31T03:34:49;22.27;;;2.72;;
18082;SDS011;9168;51.194;6.840;2023-03-31T03:37:16;17.67;;;2.90;;
18082;SDS011;9168;51.194;6.840;2023-03-31T03:39:43;22.65;;;3.35;;
18082;SDS011;9168;51.194;6.840;2023-03-31T03:42:10;16.60;;;2.95;;
18082;SDS011;9168;51.194;6.840;2023-03-31T03:44:36;22.35;;;3.63;;
18082;SDS011;9168;51.194;6.840;2023-03-31T03:47:03;13.30;;;2.42;;
18082;SDS011;9168;51.194;6.840;2023-03-31T03:49:30;16.08;;;2.40;;
18082;SDS011;9168;51.194;6.840;2023-03-31T03:51:58;20.08;;;3.17;;
18082;SDS011;9168;51.194;6.840;2023-03-31T03:54:25;18.55;;;3.08;;
18082;SDS011;9168;51.194;6.840;2023-03-31T03:56:52;16.95;;;2.80;;
18082;SDS011;9168;51.194;6.840;2023-03-31T03:59:19;15.80;;;2.53;;
18082;SDS011;9168;51.194;6.840;2023-03-31T04:01:46;22.70;;;2.80;;
18082;SDS011;9168;51.194;6.840;2023-03-31T04:04:13;11.02;;;2.53;;
18082;SDS011;9168;51.194;6.840;2023-03-31T04:06:40;19.20;;;3.00;;
18082;SDS011;9168;51.194;6.840;2023-03-31T04:09:09;18.08;;;2.83;;
18082;SDS011;9168;51.194;6.840;2023-03-31T04:11:35;16.38;;;2.90;;
18082;SDS011;9168;51.194;6.840;2023-03-31T04:14:02;15.77;;;3.60;;
18082;SDS011;9168;51.194;6.840;2023-03-31T04:16:29;14.80;;;3.28;;
18082;SDS011;9168;51.194;6.840;2023-03-31T04:18:58;20.13;;;3.22;;
18082;SDS011;9168;51.194;6.840;2023-03-31T04:21:28;21.10;;;3.63;;
18082;SDS011;9168;51.194;6.840;2023-03-31T04:23:59;19.63;;;3.25;;
18082;SDS011;9168;51.194;6.840;2023-03-31T04:26:30;18.75;;;3.95;;
18082;SDS011;9168;51.194;6.840;2023-03-31T04:29:06;14.65;;;3.03;;
18082;SDS011;9168;51.194;6.840;2023-03-31T04:31:34;12.70;;;2.67;;
18082;SDS011;9168;51.194;6.840;2023-03-31T04:34:03;18.33;;;3.13;;
18082;SDS011;9168;51.194;6.840;2023-03-31T04:36:30;16.25;;;3.30;;
18082;SDS011;9168;51.194;6.840;2023-03-31T04:38:58;16.83;;;2.40;;
18082;SDS011;9168;51.194;6.840;2023-03-31T04:41:25;17.92;;;3.08;;
18082;SDS011;9168;51.194;6.840;2023-03-31T04:43:54;12.50;;;2.33;;
18082;SDS011;9168;51.194;6.840;2023-03-31T04:46:21;14.18;;;2.50;;
18082;SDS011;9168;51.194;6.840;2023-03-31T04:48:48;16.02;;;2.30;;
18082;SDS011;9168;51.194;6.840;2023-03-31T04:51:15;9.95;;;1.77;;
18082;SDS011;9168;51.194;6.840;2023-03-31T04:53:41;14.77;;;2.22;;
18082;SDS011;9168;51.194;6.840;2023-03-31T04:56:08;16.77;;;2.40;;
18082;SDS011;9168;51.194;6.840;2023-03-31T04:58:36;11.85;;;2.20;;
18082;SDS011;9168;51.194;6.840;2023-03-31T05:01:05;11.45;;;2.10;;
18082;SDS011;9168;51.194;6.840;2023-03-31T05:03:32;14.45;;;2.50;;
18082;SDS011;9168;51.194;6.840;2023-03-31T05:05:59;9.25;;;1.88;;
18082;SDS011;9168;51.194;6.840;2023-03-31T05:08:26;10.98;;;2.17;;
18082;SDS011;9168;51.194;6.840;2023-03-31T05:10:53;6.85;;;1.98;;
18082;SDS011;9168;51.194;6.840;2023-03-31T05:13:20;7.20;;;1.83;;
18082;SDS011;9168;51.194;6.840;2023-03-31T05:15:47;9.52;;;2.10;;
18082;SDS011;9168;51.194;6.840;2023-03-31T05:18:17;10.75;;;1.85;;
18082;SDS011;9168;51.194;6.840;2023-03-31T05:20:44;9.90;;;1.88;;
18082;SDS011;9168;51.194;6.840;2023-03-31T05:23:11;14.65;;;2.30;;
18082;SDS011;9168;51.194;6.840;2023-03-31T05:25:38;10.05;;;2.08;;
18082;SDS011;9168;51.194;6.840;2023-03-31T05:28:06;9.38;;;2.45;;
18082;SDS011;9168;51.194;6.840;2023-03-31T05:30:33;8.88;;;2.50;;
18082;SDS011;9168;51.194;6.840;2023-03-31T05:33:00;17.52;;;2.97;;
18082;SDS011;9168;51.194;6.840;2023-03-31T05:35:28;15.85;;;2.60;;
18082;SDS011;9168;51.194;6.840;2023-03-31T05:37:55;24.73;;;3.90;;
18082;SDS011;9168;51.194;6.840;2023-03-31T05:40:22;15.70;;;2.78;;
18082;SDS011;9168;51.194;6.840;2023-03-31T05:42:49;13.65;;;3.05;;
18082;SDS011;9168;51.194;6.840;2023-03-31T05:45:16;13.23;;;2.80;;
18082;SDS011;9168;51.194;6.840;2023-03-31T05:47:43;19.80;;;3.17;;
18082;SDS011;9168;51.194;6.840;2023-03-31T05:50:10;12.63;;;2.75;;
18082;SDS011;9168;51.194;6.840;2023-03-31T05:52:38;14.90;;;2.58;;
18082;SDS011;9168;51.194;6.840;2023-03-31T05:55:05;17.67;;;3.13;;
18082;SDS011;9168;51.194;6.840;2023-03-31T05:57:33;15.02;;;2.30;;
18082;SDS011;9168;51.194;6.840;2023-03-31T06:00:00;13.32;;;2.28;;
18082;SDS011;9168;51.194;6.840;2023-03-31T06:02:27;11.60;;;2.28;;
18082;SDS011;9168;51.194;6.840;2023-03-31T06:04:54;11.60;;;2.15;;
18082;SDS011;9168;51.194;6.840;2023-03-31T06:07:22;12.50;;;2.20;;
18082;SDS011;9168;51.194;6.840;2023-03-31T06:09:50;16.25;;;2.63;;
18082;SDS011;9168;51.194;6.840;2023-03-31T06:12:17;10.80;;;2.20;;
18082;SDS011;9168;51.194;6.840;2023-03-31T06:14:44;10.85;;;2.05;;
18082;SDS011;9168;51.194;6.840;2023-03-31T06:17:11;14.45;;;2.22;;
18082;SDS011;9168;51.194;6.840;2023-03-31T06:19:38;17.58;;;2.38;;
18082;SDS011;9168;51.194;6.840;2023-03-31T06:22:05;14.00;;;2.72;;
18082;SDS011;9168;51.194;6.840;2023-03-31T06:24:32;12.90;;;2.08;;
18082;SDS011;9168;51.194;6.840;2023-03-31T06:27:00;12.88;;;2.88;;
18082;SDS011;9168;51.194;6.840;2023-03-31T06:29:27;13.45;;;2.45;;
18082;SDS011;9168;51.194;6.840;2023-03-31T06:31:54;10.82;;;2.00;;
18082;SDS011;9168;51.194;6.840;2023-03-31T06:34:21;17.88;;;2.53;;
18082;SDS011;9168;51.194;6.840;2023-03-31T06:36:48;16.42;;;2.50;;
18082;SDS011;9168;51.194;6.840;2023-03-31T06:39:15;12.93;;;2.40;;
18082;SDS011;9168;51.194;6.840;2023-03-31T06:41:42;13.95;;;2.22;;
18082;SDS011;9168;51.194;6.840;2023-03-31T06:44:11;12.88;;;2.33;;
18082;SDS011;9168;51.194;6.840;2023-03-31T06:46:40;12.93;;;2.38;;
18082;SDS011;9168;51.194;6.840;2023-03-31T06:49:07;11.93;;;2.28;;
18082;SDS011;9168;51.194;6.840;2023-03-31T06:51:34;10.30;;;2.22;;
18082;SDS011;9168;51.194;6.840;2023-03-31T06:54:01;15.18;;;2.50;;
18082;SDS011;9168;51.194;6.840;2023-03-31T06:56:28;16.15;;;2.58;;
18082;SDS011;9168;51.194;6.840;2023-03-31T06:58:55;24.75;;;2.97;;
18082;SDS011;9168;51.194;6.840;2023-03-31T07:01:23;15.95;;;2.53;;
18082;SDS011;9168;51.194;6.840;2023-03-31T07:03:50;10.73;;;2.35;;
18082;SDS011;9168;51.194;6.840;2023-03-31T07:06:17;11.35;;;1.90;;
18082;SDS011;9168;51.194;6.840;2023-03-31T07:08:44;13.60;;;2.50;;
18082;SDS011;9168;51.194;6.840;2023-03-31T07:11:12;13.98;;;2.42;;
18082;SDS011;9168;51.194;6.840;2023-03-31T07:13:39;12.18;;;2.33;;
18082;SDS011;9168;51.194;6.840;2023-03-31T07:16:06;16.38;;;2.22;;
18082;SDS011;9168;51.194;6.840;2023-03-31T07:18:35;9.80;;;2.60;;
18082;SDS011;9168;51.194;6.840;2023-03-31T07:21:02;13.82;;;2.58;;
18082;SDS011;9168;51.194;6.840;2023-03-31T07:23:31;12.63;;;2.10;;
18082;SDS011;9168;51.194;6.840;2023-03-31T07:25:58;14.95;;;1.55;;
18082;SDS011;9168;51.194;6.840;2023-03-31T07:28:26;11.50;;;2.10;;
18082;SDS011;9168;51.194;6.840;2023-03-31T07:30:53;4.95;;;1.63;;
18082;SDS011;9168;51.194;6.840;2023-03-31T07:33:20;10.52;;;1.85;;
18082;SDS011;9168;51.194;6.840;2023-03-31T07:35:48;10.25;;;1.90;;
18082;SDS011;9168;51.194;6.840;2023-03-31T07:38:16;5.55;;;1.40;;
18082;SDS011;9168;51.194;6.840;2023-03-31T07:40:43;8.57;;;1.58;;
18082;SDS011;9168;51.194;6.840;2023-03-31T07:46:15;8.25;;;1.70;;
18082;SDS011;9168;51.194;6.840;2023-03-31T07:48:43;11.70;;;1.75;;
18082;SDS011;9168;51.194;6.840;2023-03-31T07:51:13;5.32;;;1.90;;
18082;SDS011;9168;51.194;6.840;2023-03-31T07:53:40;9.68;;;1.80;;
18082;SDS011;9168;51.194;6.840;2023-03-31T07:56:07;6.05;;;1.60;;
18082;SDS011;9168;51.194;6.840;2023-03-31T07:58:35;8.70;;;1.67;;
18082;SDS011;9168;51.194;6.840;2023-03-31T08:01:02;10.13;;;1.90;;
18082;SDS011;9168;51.194;6.840;2023-03-31T08:03:41;9.43;;;1.48;;
18082;SDS011;9168;51.194;6.840;2023-03-31T08:06:08;4.93;;;1.15;;
18082;SDS011;9168;51.194;6.840;2023-03-31T08:08:36;10.35;;;1.60;;
18082;SDS011;9168;51.194;6.840;2023-03-31T08:11:07;9.27;;;1.50;;
18082;SDS011;9168;51.194;6.840;2023-03-31T08:13:34;9.27;;;2.25;;
18082;SDS011;9168;51.194;6.840;2023-03-31T08:16:00;5.03;;;1.40;;
18082;SDS011;9168;51.194;6.840;2023-03-31T08:18:28;6.03;;;1.30;;
18082;SDS011;9168;51.194;6.840;2023-03-31T08:20:55;5.18;;;1.20;;
18082;SDS011;9168;51.194;6.840;2023-03-31T08:23:22;4.40;;;1.35;;
18082;SDS011;9168;51.194;6.840;2023-03-31T08:25:50;11.10;;;1.60;;
18082;SDS011;9168;51.194;6.840;2023-03-31T08:28:17;7.20;;;1.70;;
18082;SDS011;9168;51.194;6.840;2023-03-31T08:30:44;7.63;;;1.55;;
18082;SDS011;9168;51.194;6.840;2023-03-31T08:33:11;12.27;;;1.63;;
18082;SDS011;9168;51.194;6.840;2023-03-31T08:35:38;6.88;;;1.60;;
18082;SDS011;9168;51.194;6.840;2023-03-31T08:38:05;9.77;;;1.80;;
18082;SDS011;9168;51.194;6.840;2023-03-31T08:40:32;7.93;;;1.60;;
18082;SDS011;9168;51.194;6.840;2023-03-31T08:43:01;8.82;;;1.55;;
18082;SDS011;9168;51.194;6.840;2023-03-31T08:45:34;7.60;;;1.75;;
18082;SDS011;9168;51.194;6.840;2023-03-31T08:48:05;7.60;;;1.73;;
18082;SDS011;9168;51.194;6.840;2023-03-31T08:50:38;11.63;;;2.08;;
18082;SDS011;9168;51.194;6.840;2023-03-31T08:53:12;10.68;;;2.22;;
18082;SDS011;9168;51.194;6.840;2023-03-31T08:55:47;13.45;;;2.58;;
18082;SDS011;9168;51.194;6.840;2023-03-31T08:58:20;18.65;;;2.63;;
18082;SDS011;9168;51.194;6.840;2023-03-31T09:00:55;11.82;;;2.10;;
18082;SDS011;9168;51.194;6.840;2023-03-31T09:03:27;16.42;;;2.88;;
18082;SDS011;9168;51.194;6.840;2023-03-31T09:05:59;22.00;;;3.33;;
18082;SDS011;9168;51.194;6.840;2023-03-31T09:08:33;16.60;;;2.78;;
18082;SDS011;9168;51.194;6.840;2023-03-31T09:11:08;10.43;;;2.38;;
18082;SDS011;9168;51.194;6.840;2023-03-31T09:13:53;14.80;;;3.03;;
18082;SDS011;9168;51.194;6.840;2023-03-31T09:16:30;17.00;;;3.45;;
18082;SDS011;9168;51.194;6.840;2023-03-31T09:19:02;18.05;;;3.03;;
18082;SDS011;9168;51.194;6.840;2023-03-31T09:21:37;17.45;;;3.10;;
18082;SDS011;9168;51.194;6.840;2023-03-31T09:24:09;16.42;;;3.53;;
18082;SDS011;9168;51.194;6.840;2023-03-31T09:26:40;22.35;;;3.15;;
18082;SDS011;9168;51.194;6.840;2023-03-31T09:29:12;15.70;;;2.95;;
18082;SDS011;9168;51.194;6.840;2023-03-31T09:31:43;18.05;;;3.33;;
18082;SDS011;9168;51.194;6.840;2023-03-31T09:34:12;27.30;;;3.47;;
18082;SDS011;9168;51.194;6.840;2023-03-31T09:36:41;14.13;;;2.83;;
18082;SDS011;9168;51.194;6.840;2023-03-31T09:39:10;16.80;;;2.95;;
18082;SDS011;9168;51.194;6.840;2023-03-31T09:41:39;20.17;;;3.50;;
18082;SDS011;9168;51.194;6.840;2023-03-31T09:44:14;18.30;;;2.63;;
18082;SDS011;9168;51.194;6.840;2023-03-31T09:46:48;21.75;;;3.33;;
18082;SDS011;9168;51.194;6.840;2023-03-31T09:49:16;24.08;;;3.08;;
18082;SDS011;9168;51.194;6.840;2023-03-31T09:51:46;14.45;;;3.20;;
18082;SDS011;9168;51.194;6.840;2023-03-31T09:54:20;13.55;;;2.60;;
18082;SDS011;9168;51.194;6.840;2023-03-31T09:56:53;16.92;;;3.55;;
18082;SDS011;9168;51.194;6.840;2023-03-31T09:59:22;23.45;;;3.05;;
18082;SDS011;9168;51.194;6.840;2023-03-31T10:02:02;21.65;;;3.63;;
18082;SDS011;9168;51.194;6.840;2023-03-31T10:04:43;19.63;;;3.33;;
18082;SDS011;9168;51.194;6.840;2023-03-31T10:07:11;20.17;;;2.92;;
18082;SDS011;9168;51.194;6.840;2023-03-31T10:09:45;13.40;;;2.85;;
18082;SDS011;9168;51.194;6.840;2023-03-31T10:12:14;24.88;;;3.15;;
18082;SDS011;9168;51.194;6.840;2023-03-31T10:14:46;16.23;;;2.63;;
18082;SDS011;9168;51.194;6.840;2023-03-31T10:17:15;20.45;;;3.20;;
18082;SDS011;9168;51.194;6.840;2023-03-31T10:19:46;12.80;;;2.70;;
18082;SDS011;9168;51.194;6.840;2023-03-31T10:22:15;20.27;;;2.75;;
18082;SDS011;9168;51.194;6.840;2023-03-31T10:24:52;20.17;;;3.85;;
18082;SDS011;9168;51.194;6.840;2023-03-31T10:27:20;24.10;;;3.45;;
18082;SDS011;9168;51.194;6.840;2023-03-31T10:29:51;18.30;;;3.20;;
18082;SDS011;9168;51.194;6.840;2023-03-31T10:32:21;20.73;;;3.58;;
18082;SDS011;9168;51.194;6.840;2023-03-31T10:34:52;20.45;;;3.58;;
18082;SDS011;9168;51.194;6.840;2023-03-31T10:37:21;16.98;;;3.25;;
18082;SDS011;9168;51.194;6.840;2023-03-31T10:39:55;18.83;;;3.53;;
18082;SDS011;9168;51.194;6.840;2023-03-31T10:42:24;19.40;;;3.17;;
18082;SDS011;9168;51.194;6.840;2023-03-31T10:45:08;15.05;;;2.80;;
18082;SDS011;9168;51.194;6.840;2023-03-31T10:47:38;15.70;;;2.78;;
18082;SDS011;9168;51.194;6.840;2023-03-31T10:50:08;14.63;;;2.95;;
18082;SDS011;9168;51.194;6.840;2023-03-31T10:52:42;19.52;;;2.72;;
18082;SDS011;9168;51.194;6.840;2023-03-31T10:55:11;17.45;;;3.30;;
18082;SDS011;9168;51.194;6.840;2023-03-31T10:57:40;12.07;;;1.90;;
18082;SDS011;9168;51.194;6.840;2023-03-31T11:00:14;10.75;;;1.63;;
18082;SDS011;9168;51.194;6.840;2023-03-31T11:03:09;6.88;;;1.23;;
18082;SDS011;9168;51.194;6.840;2023-03-31T11:06:03;8.32;;;1.60;;
18082;SDS011;9168;51.194;6.840;2023-03-31T11:08:37;10.48;;;1.85;;
18082;SDS011;9168;51.194;6.840;2023-03-31T11:11:20;10.18;;;1.85;;
18082;SDS011;9168;51.194;6.840;2023-03-31T11:13:59;12.45;;;1.73;;
18082;SDS011;9168;51.194;6.840;2023-03-31T11:16:35;10.70;;;1.60;;
18082;SDS011;9168;51.194;6.840;2023-03-31T11:19:10;5.57;;;1.23;;
18082;SDS011;9168;51.194;6.840;2023-03-31T11:21:49;6.55;;;1.63;;
18082;SDS011;9168;51.194;6.840;2023-03-31T11:24:27;12.55;;;2.03;;
18082;SDS011;9168;51.194;6.840;2023-03-31T11:27:07;15.25;;;2.00;;
18082;SDS011;9168;51.194;6.840;2023-03-31T11:29:49;14.23;;;2.53;;
18082;SDS011;9168;51.194;6.840;2023-03-31T11:32:35;14.52;;;2.83;;
18082;SDS011;9168;51.194;6.840;2023-03-31T11:35:17;19.60;;;2.95;;
18082;SDS011;9168;51.194;6.840;2023-03-31T11:38:00;10.27;;;2.15;;
18082;SDS011;9168;51.194;6.840;2023-03-31T11:40:50;11.95;;;2.42;;
18082;SDS011;9168;51.194;6.840;2023-03-31T11:43:26;11.80;;;2.20;;
18082;SDS011;9168;51.194;6.840;2023-03-31T11:45:58;10.60;;;2.10;;
18082;SDS011;9168;51.194;6.840;2023-03-31T11:48:32;10.25;;;2.10;;
18082;SDS011;9168;51.194;6.840;2023-03-31T11:51:06;11.40;;;1.88;;
18082;SDS011;9168;51.194;6.840;2023-03-31T11:53:39;11.18;;;1.95;;
18082;SDS011;9168;51.194;6.840;2023-03-31T11:56:08;13.57;;;2.13;;
18082;SDS011;9168;51.194;6.840;2023-03-31T11:58:39;11.50;;;1.90;;
18082;SDS011;9168;51.194;6.840;2023-03-31T12:01:13;15.07;;;2.67;;
18082;SDS011;9168;51.194;6.840;2023-03-31T12:03:50;11.55;;;2.42;;
18082;SDS011;9168;51.194;6.840;2023-03-31T12:06:22;16.02;;;2.42;;
18082;SDS011;9168;51.194;6.840;2023-03-31T12:08:57;16.48;;;2.75;;
18082;SDS011;9168;51.194;6.840;2023-03-31T12:11:31;15.35;;;2.53;;
18082;SDS011;9168;51.194;6.840;2023-03-31T12:14:08;13.48;;;2.72;;
18082;SDS011;9168;51.194;6.840;2023-03-31T12:16:41;18.40;;;3.15;;
18082;SDS011;9168;51.194;6.840;2023-03-31T12:19:13;16.75;;;2.95;;
18082;SDS011;9168;51.194;6.840;2023-03-31T12:21:47;16.73;;;2.58;;
18082;SDS011;9168;51.194;6.840;2023-03-31T12:24:18;12.70;;;2.60;;
18082;SDS011;9168;51.194;6.840;2023-03-31T12:26:48;14.50;;;2.42;;
18082;SDS011;9168;51.194;6.840;2023-03-31T12:29:24;15.05;;;2.67;;
18082;SDS011;9168;51.194;6.840;2023-03-31T12:31:55;18.27;;;3.25;;
18082;SDS011;9168;51.194;6.840;2023-03-31T12:34:26;13.70;;;2.70;;
18082;SDS011;9168;51.194;6.840;2023-03-31T12:37:02;18.65;;;3.53;;
18082;SDS011;9168;51.194;6.840;2023-03-31T12:39:42;22.10;;;3.15;;
18082;SDS011;9168;51.194;6.840;2023-03-31T12:42:35;24.17;;;3.08;;
18082;SDS011;9168;51.194;6.840;2023-03-31T12:45:25;20.67;;;2.88;;
18082;SDS011;9168;51.194;6.840;2023-03-31T12:48:06;21.48;;;3.40;;
18082;SDS011;9168;51.194;6.840;2023-03-31T12:50:51;19.50;;;3.10;;
18082;SDS011;9168;51.194;6.840;2023-03-31T12:53:28;13.05;;;2.95;;
18082;SDS011;9168;51.194;6.840;2023-03-31T12:56:03;22.80;;;3.78;;
18082;SDS011;9168;51.194;6.840;2023-03-31T12:58:41;26.42;;;3.53;;
18082;SDS011;9168;51.194;6.840;2023-03-31T13:01:10;23.15;;;3.25;;
18082;SDS011;9168;51.194;6.840;2023-03-31T13:03:43;19.33;;;2.60;;
18082;SDS011;9168;51.194;6.840;2023-03-31T13:12:13;12.82;;;2.35;;
18082;SDS011;9168;51.194;6.840;2023-03-31T13:14:43;14.32;;;2.45;;
18082;SDS011;9168;51.194;6.840;2023-03-31T13:17:12;16.98;;;1.95;;
18082;SDS011;9168;51.194;6.840;2023-03-31T13:19:50;8.05;;;2.20;;
18082;SDS011;9168;51.194;6.840;2023-03-31T13:22:31;11.50;;;1.73;;
18082;SDS011;9168;51.194;6.840;2023-03-31T13:28:07;8.43;;;1.98;;
18082;SDS011;9168;51.194;6.840;2023-03-31T13:30:57;11.38;;;1.83;;
18082;SDS011;9168;51.194;6.840;2023-03-31T13:33:27;9.63;;;1.73;;
18082;SDS011;9168;51.194;6.840;2023-03-31T13:39:11;11.15;;;1.90;;
18082;SDS011;9168;51.194;6.840;2023-03-31T13:42:00;14.63;;;2.38;;
18082;SDS011;9168;51.194;6.840;2023-03-31T13:47:57;12.88;;;2.05;;
18082;SDS011;9168;51.194;6.840;2023-03-31T13:53:39;13.30;;;2.45;;
18082;SDS011;9168;51.194;6.840;2023-03-31T13:56:32;9.02;;;1.92;;
18082;SDS011;9168;51.194;6.840;2023-03-31T14:02:45;9.63;;;2.08;;
18082;SDS011;9168;51.194;6.840;2023-03-31T14:05:22;17.98;;;2.80;;
18082;SDS011;9168;51.194;6.840;2023-03-31T14:07:53;9.68;;;2.20;;
18082;SDS011;9168;51.194;6.840;2023-03-31T14:10:24;11.35;;;2.30;;
18082;SDS011;9168;51.194;6.840;2023-03-31T14:13:08;7.97;;;1.85;;
18082;SDS011;9168;51.194;6.840;2023-03-31T14:15:37;11.88;;;2.38;;
18082;SDS011;9168;51.194;6.840;2023-03-31T14:18:08;8.13;;;2.00;;
18082;SDS011;9168;51.194;6.840;2023-03-31T14:20:43;9.73;;;2.05;;
18082;SDS011;9168;51.194;6.840;2023-03-31T14:23:21;10.50;;;2.10;;
18082;SDS011;9168;51.194;6.840;2023-03-31T14:25:59;11.52;;;1.90;;
18082;SDS011;9168;51.194;6.840;2023-03-31T14:28:35;6.18;;;1.35;;
18082;SDS011;9168;51.194;6.840;2023-03-31T14:31:27;9.35;;;1.92;;
18082;SDS011;9168;51.194;6.840;2023-03-31T14:36:52;11.15;;;1.80;;
18082;SDS011;9168;51.194;6.840;2023-03-31T14:39:25;9.27;;;1.80;;
18082;SDS011;9168;51.194;6.840;2023-03-31T14:41:58;8.68;;;1.98;;
18082;SDS011;9168;51.194;6.840;2023-03-31T14:44:28;13.65;;;2.40;;
18082;SDS011;9168;51.194;6.840;2023-03-31T14:46:55;18.77;;;2.25;;
18082;SDS011;9168;51.194;6.840;2023-03-31T14:49:26;13.02;;;1.92;;
18082;SDS011;9168;51.194;6.840;2023-03-31T14:51:54;13.52;;;2.35;;
18082;SDS011;9168;51.194;6.840;2023-03-31T14:54:32;12.02;;;2.25;;
18082;SDS011;9168;51.194;6.840;2023-03-31T14:57:06;8.32;;;2.05;;
18082;SDS011;9168;51.194;6.840;2023-03-31T14:59:36;13.02;;;2.00;;
18082;SDS011;9168;51.194;6.840;2023-03-31T15:02:04;10.07;;;1.88;;
18082;SDS011;9168;51.194;6.840;2023-03-31T15:04:38;13.75;;;2.13;;
18082;SDS011;9168;51.194;6.840;2023-03-31T15:07:09;13.80;;;2.20;;
18082;SDS011;9168;51.194;6.840;2023-03-31T15:09:36;14.43;;;2.65;;
18082;SDS011;9168;51.194;6.840;2023-03-31T15:12:05;17.40;;;2.65;;
18082;SDS011;9168;51.194;6.840;2023-03-31T15:14:36;13.82;;;2.15;;
18082;SDS011;9168;51.194;6.840;2023-03-31T15:17:14;10.57;;;2.35;;
18082;SDS011;9168;51.194;6.840;2023-03-31T15:19:44;14.75;;;2.38;;
18082;SDS011;9168;51.194;6.840;2023-03-31T15:22:13;14.45;;;2.47;;
18082;SDS011;9168;51.194;6.840;2023-03-31T15:24:42;22.10;;;2.72;;
18082;SDS011;9168;51.194;6.840;2023-03-31T15:27:12;19.05;;;3.00;;
18082;SDS011;9168;51.194;6.840;2023-03-31T15:29:41;14.23;;;2.42;;
18082;SDS011;9168;51.194;6.840;2023-03-31T15:32:12;21.73;;;2.83;;
18082;SDS011;9168;51.194;6.840;2023-03-31T15:34:42;21.67;;;3.10;;
18082;SDS011;9168;51.194;6.840;2023-03-31T15:37:11;19.00;;;2.63;;
18082;SDS011;9168;51.194;6.840;2023-03-31T15:39:42;14.30;;;2.63;;
18082;SDS011;9168;51.194;6.840;2023-03-31T15:42:12;14.38;;;2.25;;
18082;SDS011;9168;51.194;6.840;2023-03-31T15:44:43;11.82;;;2.22;;
18082;SDS011;9168;51.194;6.840;2023-03-31T15:47:17;13.85;;;2.55;;
18082;SDS011;9168;51.194;6.840;2023-03-31T15:49:52;17.52;;;2.28;;
18082;SDS011;9168;51.194;6.840;2023-03-31T15:52:23;12.10;;;2.55;;
18082;SDS011;9168;51.194;6.840;2023-03-31T15:54:54;14.40;;;2.60;;
18082;SDS011;9168;51.194;6.840;2023-03-31T15:57:22;17.10;;;3.08;;